Архив погоды в Арзамасе

Метеограмма Арзамас
Пятница, 23 Июня
Время местн. Темп Ветер Видим Явления Облачность нижн/средн/верх Атм. давл. Влжн Точка росы ВНГО R Сост. почвы Tg s
Напр Скр Прв ур.ст ур.м изм
12:00 +15.3° З 5 8 20 км - облачно с прояснениями 744 755 -0.2 59% +7.4° 600 м - - - -
09:00 +14.5° З,Ю-З 5 7 20 км - преимущественно облачно 744 755 -0.1 65% +8.1° 600 м - - - -
06:00 +10.9° Ю,Ю-З 2 4 20 км - преимущественно облачно 744 755 +0.2 87% +8.9° 600 м - Влажная (без луж) - -
03:00 +9.5° Ю 1 3 4 км - облачно 744 755 +0.5 84% +7° 600 м - - - -
00:00 +9.4° Ю,Ю-З 1 2 4 км - переменная облачность 744 755 +0.2 84% +6.8° 600 м - - - -
Четверг, 22 Июня
Время местн. Темп Ветер Видим Явления Облачность нижн/средн/верх Атм. давл. Влжн Точка росы ВНГО R Сост. почвы Tg s
Напр Скр Прв ур.ст ур.м изм
21:00 +11.6° Ю,Ю-З 1 3 20 км небо без изменений {ливневые осадки, дождь} облачно с прояснениями 743 754 +1.2 86% +9.4° 600 м - - - -
18:00 +15° З 5 10 20 км - преимущественно облачно 742 753 +0.5 64% +8.2° 600 м 2 - - -
15:00 +14° З 5 8 20 км ливневый дождь преимущественно облачно 742 753 +0.9 66% +7.7° 600 м - - - -
12:00 +13.8° Ю-З 9 15 20 км слабый непрерывный дождь {ливневые осадки} преимущественно облачно 741 752 +0.7 66% +7.6° - - - - -
09:00 +13.7° З,Ю-З 5 8 20 км - облачно с прояснениями 740 751 +0.3 64% +7.1° 600 м - - - -
06:00 +10.6° З,Ю-З 4 6 20 км - ясно 740 751 +0.1 77% +6.8° более 2.5 км - Сухая (без трещин) - -
03:00 +7.7° Ю 2 3 4 км - ясно 740 751 -0.1 90% +6.2° более 2.5 км - - - -
00:00 +9.1° Ю,Ю-З 2 4 4 км - ясно 740 751 +0.2 81% +6.1° более 2.5 км - - - -
Среда, 21 Июня
Время местн. Темп Ветер Видим Явления Облачность нижн/средн/верх Атм. давл. Влжн Точка росы ВНГО R Сост. почвы Tg s
Напр Скр Прв ур.ст ур.м изм
21:00 +14.8° З,С-З 2 4 20 км - переменная облачность 740 750 +1.4 57% +6.4° 1 км - - - -
18:00 +19.6° З 4 8 20 км - переменная облачность 738 749 +0.9 40% +5.6° 1 км - - - -
15:00 +21.4° З 9 14 20 км - переменная облачность 737 748 +0.4 42% +8° 1 км - - - -
12:00 +20.2° Ю-З 8 13 20 км - облачно с прояснениями 737 747 -0.5 59% +12° 1 км - - - -
09:00 +14.4° Ю,Ю-З 5 7 20 км небо без изменений {дождь} облачно 737 748 -0.5 88% +12.4° - - - - -
06:00 +15° Ю,Ю-З 5 8 20 км - облачно 738 749 -1.7 67% +8.9° более 2.5 км 0 Сухая (без трещин) +12° -
03:00 +12.8° Ю 3 4 4 км - облачно 740 750 -1.7 71% +7.7° - - - - -
00:00 +13.1° Ю 2 3 4 км - ясно 741 752 -0.7 68% +7.4° более 2.5 км - - - -
Вторник, 20 Июня
Время местн. Темп Ветер Видим Явления Облачность нижн/средн/верх Атм. давл. Влжн Точка росы ВНГО R Сост. почвы Tg s
Напр Скр Прв ур.ст ур.м изм
21:00 +13.8° штиль 0 7 20 км - ясно 742 753 +0.1 71% +8.6° более 2.5 км - - - -
18:00 +21.1° С-З 3 6 20 км - переменная облачность 742 753 -0.1 36% +5.5° 600 м - - - -
15:00 +21° З,С-З 4 8 20 км - переменная облачность 742 753 -0.2 36% +5.3° 600 м - - - -
12:00 +20.5° З,С-З 5 9 20 км - переменная облачность 742 753 -0.2 40% +6.4° 600 м - - - -
09:00 +17.8° С,С-З 3 4 20 км - переменная облачность 742 753 +0.4 61% +10.3° - - - - -